Time;durP1;ratioP1;P1;durP2;ratioP2;P2;SDS_P1;SDS_P2;PMS_P1;PMS_P2;Temp;Humidity;BMP_temperature;BMP_pressure;BME280_temperature;BME280_humidity;BME280_pressure;Samples;Min_cycle;Max_cycle;Signal;HPM_P1;HPM_P2
2023/05/19 00:01:13;;;;;;;3.70;1.20;;;;;;;;;;5102907;28;20731;-83
2023/05/19 00:03:51;;;;;;;1.98;1.50;;;;;;;;;;5103104;28;20807;-83
2023/05/19 00:06:24;;;;;;;1.92;1.30;;;;;;;;;;5103563;28;20211;-83
2023/05/19 00:08:57;;;;;;;1.60;1.20;;;;;;;;;;5103104;28;20576;-82
2023/05/19 00:11:27;;;;;;;1.88;1.10;;;;;;;;;;5102174;28;20188;-84
2023/05/19 00:13:55;;;;;;;1.77;1.00;;;;;;;;;;5100348;28;20283;-82
2023/05/19 00:16:23;;;;;;;1.90;1.30;;;;;;;;;;5101284;28;20571;-82
2023/05/19 00:18:52;;;;;;;1.35;1.10;;;;;;;;;;5101517;28;20303;-81
2023/05/19 00:21:19;;;;;;;2.97;1.10;;;;;;;;;;5101753;28;20204;-82
2023/05/19 00:23:47;;;;;;;1.55;1.40;;;;;;;;;;5088310;28;20269;-82
2023/05/19 00:26:14;;;;;;;3.92;1.38;;;;;;;;;;5080251;28;20316;-82
2023/05/19 00:28:43;;;;;;;1.20;1.10;;;;;;;;;;5080839;28;20227;-82
2023/05/19 00:31:11;;;;;;;2.25;1.13;;;;;;;;;;5080398;28;20232;-82
2023/05/19 00:33:38;;;;;;;2.58;1.25;;;;;;;;;;5080014;28;20236;-81
2023/05/19 00:36:06;;;;;;;4.78;1.42;;;;;;;;;;5081448;28;20205;-83
2023/05/19 00:38:36;;;;;;;1.30;1.17;;;;;;;;;;5081008;28;20307;-82
2023/05/19 00:41:05;;;;;;;1.98;1.45;;;;;;;;;;5081815;28;20197;-83
2023/05/19 00:43:34;;;;;;;2.08;1.40;;;;;;;;;;5081018;28;20207;-83
2023/05/19 00:46:03;;;;;;;2.67;1.05;;;;;;;;;;5080957;28;20665;-83
2023/05/19 00:48:31;;;;;;;1.55;1.10;;;;;;;;;;5081107;28;20304;-82
2023/05/19 00:51:02;;;;;;;1.67;1.58;;;;;;;;;;5079551;28;20201;-82
2023/05/19 00:53:30;;;;;;;2.15;1.45;;;;;;;;;;5089220;28;20200;-82
2023/05/19 00:55:59;;;;;;;1.33;1.23;;;;;;;;;;5101124;28;20202;-83
2023/05/19 00:58:28;;;;;;;1.55;1.45;;;;;;;;;;5099684;28;20228;-83
2023/05/19 01:01:01;;;;;;;2.20;1.48;;;;;;;;;;5100463;28;20231;-83
2023/05/19 01:03:31;;;;;;;2.45;1.50;;;;;;;;;;5100993;28;20203;-82
2023/05/19 01:06:03;;;;;;;2.92;1.65;;;;;;;;;;5101243;28;20200;-83
2023/05/19 01:08:32;;;;;;;1.90;1.58;;;;;;;;;;5100447;28;20224;-82
2023/05/19 01:11:00;;;;;;;4.15;1.77;;;;;;;;;;5101455;28;20291;-82
2023/05/19 01:13:28;;;;;;;3.40;1.52;;;;;;;;;;5101004;28;20291;-83
2023/05/19 01:16:01;;;;;;;1.45;1.23;;;;;;;;;;5100294;28;20200;-83
2023/05/19 01:18:45;;;;;;;2.00;1.13;;;;;;;;;;5100259;28;20273;-82
2023/05/19 01:21:43;;;;;;;1.52;1.42;;;;;;;;;;5099622;28;20204;-82
2023/05/19 01:24:31;;;;;;;2.00;1.27;;;;;;;;;;5083823;28;20653;-82
2023/05/19 01:27:43;;;;;;;1.67;1.58;;;;;;;;;;5079139;28;20272;-82
2023/05/19 01:30:29;;;;;;;2.53;1.25;;;;;;;;;;5058976;28;20287;-80
2023/05/19 01:33:01;;;;;;;2.42;1.40;;;;;;;;;;5079154;28;20185;-81
2023/05/19 01:35:29;;;;;;;3.38;1.13;;;;;;;;;;5079751;28;20541;-81
2023/05/19 01:37:59;;;;;;;1.63;1.45;;;;;;;;;;5078905;28;20213;-81
2023/05/19 01:40:28;;;;;;;4.85;2.13;;;;;;;;;;5078876;28;20276;-81
2023/05/19 01:42:59;;;;;;;2.95;1.48;;;;;;;;;;5078026;28;20208;-81
2023/05/19 01:45:29;;;;;;;1.92;1.50;;;;;;;;;;5078700;28;20208;-82
2023/05/19 01:47:59;;;;;;;1.33;1.23;;;;;;;;;;5077740;28;20222;-81
2023/05/19 01:50:27;;;;;;;2.35;1.42;;;;;;;;;;5080122;28;20211;-81
2023/05/19 01:52:55;;;;;;;3.92;1.40;;;;;;;;;;5078837;28;20209;-82
2023/05/19 01:55:23;;;;;;;1.60;1.40;;;;;;;;;;5078506;28;20564;-81
2023/05/19 01:58:02;;;;;;;1.88;1.75;;;;;;;;;;5078546;28;20603;-82
2023/05/19 02:00:44;;;;;;;2.15;1.35;;;;;;;;;;5075544;28;20207;-82
2023/05/19 02:03:26;;;;;;;2.83;1.67;;;;;;;;;;5076500;28;20207;-82
2023/05/19 02:05:59;;;;;;;1.95;1.40;;;;;;;;;;5076073;28;20181;-81
2023/05/19 02:08:47;;;;;;;3.42;1.92;;;;;;;;;;5075591;28;20236;-81
2023/05/19 02:11:18;;;;;;;1.85;1.35;;;;;;;;;;5075828;28;20182;-82
2023/05/19 02:13:50;;;;;;;1.67;1.30;;;;;;;;;;5076149;28;20268;-82
2023/05/19 02:16:21;;;;;;;2.47;1.25;;;;;;;;;;5075921;28;20198;-82
2023/05/19 02:18:48;;;;;;;3.85;1.58;;;;;;;;;;5075615;28;20252;-81
2023/05/19 02:21:15;;;;;;;1.95;1.17;;;;;;;;;;5075857;28;20709;-82
2023/05/19 02:23:43;;;;;;;3.50;1.65;;;;;;;;;;5086641;28;20291;-82
2023/05/19 02:26:10;;;;;;;2.78;1.55;;;;;;;;;;5094283;28;20287;-80
2023/05/19 02:28:38;;;;;;;3.67;1.45;;;;;;;;;;5092866;28;20320;-82
2023/05/19 02:31:07;;;;;;;3.17;1.70;;;;;;;;;;5092989;28;20287;-81
2023/05/19 02:33:36;;;;;;;1.88;1.45;;;;;;;;;;5092708;28;20196;-81
2023/05/19 02:36:04;;;;;;;3.40;1.90;;;;;;;;;;5092719;28;20282;-83
2023/05/19 02:38:32;;;;;;;3.83;1.60;;;;;;;;;;5092809;28;20216;-83
2023/05/19 02:40:59;;;;;;;1.77;1.50;;;;;;;;;;5093212;28;20284;-81
2023/05/19 02:43:29;;;;;;;3.92;1.25;;;;;;;;;;5093708;28;20200;-81
2023/05/19 02:45:56;;;;;;;2.60;1.50;;;;;;;;;;5094135;28;20661;-81
2023/05/19 02:48:24;;;;;;;2.10;1.33;;;;;;;;;;5093389;28;20733;-82
2023/05/19 02:50:53;;;;;;;4.88;1.73;;;;;;;;;;5093155;28;20291;-81
2023/05/19 02:53:20;;;;;;;1.40;1.30;;;;;;;;;;5093511;28;20295;-81
2023/05/19 02:55:47;;;;;;;2.97;1.52;;;;;;;;;;5093801;28;20295;-80
2023/05/19 02:58:15;;;;;;;1.33;1.23;;;;;;;;;;5093408;28;20216;-81
2023/05/19 03:00:44;;;;;;;1.40;1.27;;;;;;;;;;5093849;28;20204;-82
2023/05/19 03:03:12;;;;;;;3.78;1.48;;;;;;;;;;5094045;28;20204;-81
2023/05/19 03:05:40;;;;;;;1.50;1.40;;;;;;;;;;5093901;28;20201;-80
2023/05/19 03:08:09;;;;;;;2.08;1.20;;;;;;;;;;5093258;28;20235;-81
2023/05/19 03:10:36;;;;;;;2.33;1.48;;;;;;;;;;5093687;28;20261;-79
2023/05/19 03:13:04;;;;;;;1.65;1.27;;;;;;;;;;5093657;28;20287;-80
2023/05/19 03:15:32;;;;;;;1.45;1.35;;;;;;;;;;5093332;28;20295;-80
2023/05/19 03:17:59;;;;;;;1.27;1.17;;;;;;;;;;5093466;28;20212;-80
2023/05/19 03:20:29;;;;;;;1.88;1.52;;;;;;;;;;5093811;28;20196;-82
2023/05/19 03:22:56;;;;;;;2.53;1.23;;;;;;;;;;5093418;28;20214;-80
2023/05/19 03:25:26;;;;;;;1.85;1.20;;;;;;;;;;5092728;28;20239;-80
2023/05/19 03:27:53;;;;;;;1.80;1.27;;;;;;;;;;5093014;28;20694;-83
2023/05/19 03:30:21;;;;;;;1.83;1.20;;;;;;;;;;5092538;28;20204;-81
2023/05/19 03:32:50;;;;;;;1.92;1.52;;;;;;;;;;5092635;28;20302;-80
2023/05/19 03:35:18;;;;;;;2.10;1.33;;;;;;;;;;5093643;28;20854;-82
2023/05/19 03:37:45;;;;;;;1.35;1.25;;;;;;;;;;5092744;28;20311;-82
2023/05/19 03:40:14;;;;;;;2.45;1.25;;;;;;;;;;5092819;28;20200;-82
2023/05/19 03:42:43;;;;;;;1.55;1.15;;;;;;;;;;5092694;28;20246;-83
2023/05/19 03:45:11;;;;;;;1.67;1.33;;;;;;;;;;5095131;28;20613;-81
2023/05/19 03:47:38;;;;;;;1.58;1.45;;;;;;;;;;5096805;28;20235;-81
2023/05/19 03:50:08;;;;;;;2.08;1.25;;;;;;;;;;5096081;28;20315;-82
2023/05/19 03:52:37;;;;;;;1.55;1.33;;;;;;;;;;5096523;28;20204;-81
2023/05/19 03:55:05;;;;;;;1.42;1.30;;;;;;;;;;5096732;28;20210;-80
2023/05/19 03:57:33;;;;;;;2.15;1.65;;;;;;;;;;5095941;28;20231;-80
2023/05/19 04:00:02;;;;;;;2.13;1.23;;;;;;;;;;5095793;28;20319;-82
2023/05/19 04:02:30;;;;;;;2.20;1.83;;;;;;;;;;5095936;28;20197;-81
2023/05/19 04:04:57;;;;;;;3.30;1.55;;;;;;;;;;5096174;28;20570;-80
2023/05/19 04:07:25;;;;;;;4.03;2.08;;;;;;;;;;5096255;28;20223;-81
2023/05/19 04:09:52;;;;;;;1.40;1.30;;;;;;;;;;5096620;28;20315;-80
2023/05/19 04:12:20;;;;;;;6.07;1.40;;;;;;;;;;5096022;28;20296;-81
2023/05/19 04:14:47;;;;;;;1.38;1.13;;;;;;;;;;5096896;28;20734;-80
2023/05/19 04:17:16;;;;;;;1.52;1.38;;;;;;;;;;5096625;28;20306;-81
2023/05/19 04:19:44;;;;;;;3.50;1.30;;;;;;;;;;5096948;28;20636;-79
2023/05/19 04:22:11;;;;;;;1.30;1.20;;;;;;;;;;5096514;28;20239;-81
2023/05/19 04:24:39;;;;;;;2.25;1.75;;;;;;;;;;5096457;28;20208;-82
2023/05/19 04:27:10;;;;;;;1.83;1.20;;;;;;;;;;5097238;28;20216;-81
2023/05/19 04:29:39;;;;;;;1.40;1.20;;;;;;;;;;5096095;28;20205;-82
2023/05/19 04:32:07;;;;;;;1.77;1.30;;;;;;;;;;5097805;28;20227;-82
2023/05/19 04:34:38;;;;;;;2.33;1.10;;;;;;;;;;5097287;28;20283;-82
2023/05/19 04:37:08;;;;;;;1.35;1.15;;;;;;;;;;5096982;28;20220;-81
2023/05/19 04:39:37;;;;;;;1.63;1.38;;;;;;;;;;5096445;28;20649;-81
2023/05/19 04:42:07;;;;;;;1.50;1.40;;;;;;;;;;5103014;28;20265;-81
2023/05/19 04:44:36;;;;;;;2.05;1.30;;;;;;;;;;5097304;28;20188;-81
2023/05/19 04:47:04;;;;;;;1.63;1.20;;;;;;;;;;5096325;28;20265;-80
2023/05/19 04:49:32;;;;;;;3.83;1.45;;;;;;;;;;5096567;28;20255;-81
2023/05/19 04:52:01;;;;;;;1.23;1.17;;;;;;;;;;5095988;28;20641;-81
2023/05/19 04:54:28;;;;;;;1.75;1.27;;;;;;;;;;5095229;28;20289;-80
2023/05/19 04:56:56;;;;;;;3.63;2.13;;;;;;;;;;5094683;28;20196;-81
2023/05/19 04:59:23;;;;;;;3.97;1.80;;;;;;;;;;5095866;28;20280;-81
2023/05/19 05:01:50;;;;;;;1.85;1.63;;;;;;;;;;5095613;28;20629;-80
2023/05/19 05:04:20;;;;;;;1.92;1.77;;;;;;;;;;5095875;28;20551;-82
2023/05/19 05:06:48;;;;;;;1.58;1.33;;;;;;;;;;5096297;28;20568;-81
2023/05/19 05:09:18;;;;;;;2.00;1.45;;;;;;;;;;5096008;28;20224;-81
2023/05/19 05:11:46;;;;;;;4.03;1.42;;;;;;;;;;5096331;28;20188;-81
2023/05/19 05:14:15;;;;;;;2.55;1.52;;;;;;;;;;5095395;28;20238;-82
2023/05/19 05:16:43;;;;;;;1.70;1.13;;;;;;;;;;5095707;28;20204;-81
2023/05/19 05:19:11;;;;;;;1.35;1.17;;;;;;;;;;5095572;28;20196;-81
2023/05/19 05:21:40;;;;;;;3.38;2.08;;;;;;;;;;5095926;28;20710;-80
2023/05/19 05:24:09;;;;;;;1.13;1.13;;;;;;;;;;5095747;28;20249;-81
2023/05/19 05:26:39;;;;;;;1.70;1.40;;;;;;;;;;5095773;28;20250;-82
2023/05/19 05:29:07;;;;;;;1.02;1.00;;;;;;;;;;5095399;28;20282;-83
2023/05/19 05:31:35;;;;;;;1.27;1.13;;;;;;;;;;5095139;28;20206;-81
2023/05/19 05:34:03;;;;;;;1.38;1.10;;;;;;;;;;5094617;28;20367;-83
2023/05/19 05:36:30;;;;;;;1.27;1.17;;;;;;;;;;5094772;28;20308;-82
2023/05/19 05:38:59;;;;;;;1.20;1.10;;;;;;;;;;5093679;28;20222;-82
2023/05/19 05:41:28;;;;;;;1.35;1.25;;;;;;;;;;5094922;28;20204;-82
2023/05/19 05:43:56;;;;;;;2.78;1.30;;;;;;;;;;5094646;28;20664;-81
2023/05/19 05:46:24;;;;;;;2.53;1.25;;;;;;;;;;5093869;28;20287;-83
2023/05/19 05:48:52;;;;;;;2.90;1.10;;;;;;;;;;5094020;28;20311;-81
2023/05/19 05:51:22;;;;;;;2.80;1.48;;;;;;;;;;5093727;28;20219;-82
2023/05/19 05:53:53;;;;;;;3.78;1.58;;;;;;;;;;5094873;28;20215;-80
2023/05/19 05:56:22;;;;;;;1.55;1.33;;;;;;;;;;5094318;28;20394;-81
2023/05/19 05:58:49;;;;;;;2.58;1.42;;;;;;;;;;5093980;28;20239;-82
2023/05/19 06:01:19;;;;;;;3.08;1.73;;;;;;;;;;5095035;28;20673;-82
2023/05/19 06:03:47;;;;;;;1.08;0.95;;;;;;;;;;5094517;28;20216;-80
2023/05/19 06:06:14;;;;;;;1.58;1.38;;;;;;;;;;5094598;28;20287;-80
2023/05/19 06:08:42;;;;;;;1.10;1.00;;;;;;;;;;5094198;28;20225;-80
2023/05/19 06:11:09;;;;;;;2.08;1.33;;;;;;;;;;5110044;28;20658;-81
2023/05/19 06:13:37;;;;;;;2.03;1.50;;;;;;;;;;5114751;28;20632;-80
2023/05/19 06:16:05;;;;;;;1.70;1.10;;;;;;;;;;5114754;28;20206;-83
2023/05/19 06:18:34;;;;;;;1.80;1.20;;;;;;;;;;5114042;28;20269;-83
2023/05/19 06:21:02;;;;;;;1.33;1.10;;;;;;;;;;5114083;28;20914;-82
2023/05/19 06:23:31;;;;;;;1.50;1.40;;;;;;;;;;5113570;28;20203;-82
2023/05/19 06:25:58;;;;;;;3.33;2.10;;;;;;;;;;5109118;28;20224;-80
2023/05/19 06:28:26;;;;;;;1.20;1.10;;;;;;;;;;5093971;28;20227;-82
2023/05/19 06:30:53;;;;;;;1.73;1.38;;;;;;;;;;5094473;28;20757;-82
2023/05/19 06:33:21;;;;;;;2.45;1.63;;;;;;;;;;5093342;28;20558;-81
2023/05/19 06:35:50;;;;;;;2.13;1.40;;;;;;;;;;5093587;28;20283;-81
2023/05/19 06:38:17;;;;;;;1.75;1.45;;;;;;;;;;5094154;28;20597;-83
2023/05/19 06:40:45;;;;;;;2.05;1.38;;;;;;;;;;5093676;28;20201;-81
2023/05/19 06:43:12;;;;;;;1.77;1.33;;;;;;;;;;5093654;28;20204;-82
2023/05/19 06:45:40;;;;;;;1.65;1.25;;;;;;;;;;5093715;28;20283;-82
2023/05/19 06:48:07;;;;;;;2.08;1.40;;;;;;;;;;5093298;28;20307;-80
2023/05/19 06:50:34;;;;;;;1.48;1.30;;;;;;;;;;5093650;28;20805;-81
2023/05/19 06:53:03;;;;;;;2.80;1.52;;;;;;;;;;5093235;28;20287;-82
2023/05/19 06:55:31;;;;;;;2.22;1.40;;;;;;;;;;5093206;28;20200;-82
2023/05/19 06:57:58;;;;;;;3.80;2.08;;;;;;;;;;5093528;28;20279;-82
2023/05/19 07:00:26;;;;;;;2.00;1.30;;;;;;;;;;5093283;28;20283;-82
2023/05/19 07:02:53;;;;;;;2.17;1.60;;;;;;;;;;5093185;28;20299;-82
2023/05/19 07:05:21;;;;;;;2.95;1.35;;;;;;;;;;5092528;28;20200;-84
2023/05/19 07:07:48;;;;;;;2.13;1.50;;;;;;;;;;5093899;28;20226;-83
2023/05/19 07:10:17;;;;;;;4.43;2.20;;;;;;;;;;5093193;28;20220;-81
2023/05/19 07:12:45;;;;;;;2.47;1.70;;;;;;;;;;5093229;28;20292;-82
2023/05/19 07:15:12;;;;;;;1.48;1.10;;;;;;;;;;5092781;28;20196;-81
2023/05/19 07:17:40;;;;;;;11.55;3.63;;;;;;;;;;5093673;28;20284;-80
2023/05/19 07:20:09;;;;;;;2.08;1.35;;;;;;;;;;5096744;28;20200;-82
2023/05/19 07:22:38;;;;;;;2.05;1.90;;;;;;;;;;5098133;28;20601;-83
2023/05/19 07:25:06;;;;;;;2.13;1.42;;;;;;;;;;5097217;28;20291;-83
2023/05/19 07:27:35;;;;;;;1.63;1.50;;;;;;;;;;5097188;28;20306;-82
2023/05/19 07:30:03;;;;;;;3.20;1.50;;;;;;;;;;5097186;28;20232;-82
2023/05/19 07:32:31;;;;;;;1.63;1.20;;;;;;;;;;5097572;28;20210;-83
2023/05/19 07:34:58;;;;;;;2.25;2.05;;;;;;;;;;5097231;28;20266;-81
2023/05/19 07:37:26;;;;;;;1.45;1.10;;;;;;;;;;5097400;28;20637;-82
2023/05/19 07:39:53;;;;;;;1.92;1.25;;;;;;;;;;5096896;28;20207;-82
2023/05/19 07:42:21;;;;;;;4.25;1.75;;;;;;;;;;5097266;28;20634;-82
2023/05/19 07:44:50;;;;;;;2.33;2.10;;;;;;;;;;5097425;28;20738;-81
2023/05/19 07:47:17;;;;;;;1.60;1.17;;;;;;;;;;5097798;28;20238;-84
2023/05/19 07:49:45;;;;;;;2.15;1.38;;;;;;;;;;5097015;28;20296;-84
2023/05/19 07:52:12;;;;;;;2.42;1.38;;;;;;;;;;5097053;28;20216;-82
2023/05/19 07:54:40;;;;;;;1.73;1.25;;;;;;;;;;5098199;28;20239;-82
2023/05/19 07:57:07;;;;;;;3.10;1.30;;;;;;;;;;5098005;28;20311;-81
2023/05/19 07:59:34;;;;;;;1.45;1.05;;;;;;;;;;5098017;28;20292;-81
2023/05/19 08:02:03;;;;;;;3.05;1.92;;;;;;;;;;5097794;28;20193;-83
2023/05/19 08:04:31;;;;;;;1.85;1.30;;;;;;;;;;5097215;28;20232;-82
2023/05/19 08:06:59;;;;;;;1.60;1.30;;;;;;;;;;5097792;28;20196;-82
2023/05/19 08:09:26;;;;;;;1.67;1.20;;;;;;;;;;5098058;28;20250;-84
2023/05/19 08:11:54;;;;;;;1.55;1.10;;;;;;;;;;5098065;28;20309;-83
2023/05/19 08:14:21;;;;;;;2.63;1.20;;;;;;;;;;5097577;28;20207;-83
2023/05/19 08:16:49;;;;;;;1.90;1.25;;;;;;;;;;5097870;28;20204;-84
2023/05/19 08:19:18;;;;;;;1.88;1.50;;;;;;;;;;5097585;28;20200;-85
2023/05/19 08:21:47;;;;;;;2.00;1.40;;;;;;;;;;5096722;28;20564;-83
2023/05/19 08:24:14;;;;;;;1.15;1.10;;;;;;;;;;5097293;28;20216;-85
2023/05/19 08:26:43;;;;;;;3.00;1.35;;;;;;;;;;5098067;28;20196;-84
2023/05/19 08:29:11;;;;;;;1.95;1.83;;;;;;;;;;5103301;28;20638;-85
2023/05/19 08:31:38;;;;;;;1.00;1.00;;;;;;;;;;5103623;28;20216;-84
2023/05/19 08:34:06;;;;;;;3.28;1.80;;;;;;;;;;5103637;28;20236;-84
2023/05/19 08:36:34;;;;;;;3.63;2.08;;;;;;;;;;5104287;28;20196;-85
2023/05/19 08:39:02;;;;;;;7.68;2.28;;;;;;;;;;5083107;28;20642;-83
2023/05/19 08:41:30;;;;;;;1.80;1.48;;;;;;;;;;5081481;28;20224;-84
2023/05/19 08:43:57;;;;;;;1.13;0.98;;;;;;;;;;5080666;28;20197;-84
2023/05/19 08:46:26;;;;;;;1.33;1.10;;;;;;;;;;5080744;28;20201;-84
2023/05/19 08:48:57;;;;;;;2.58;1.50;;;;;;;;;;5082216;28;20225;-83
2023/05/19 08:51:35;;;;;;;1.10;1.08;;;;;;;;;;5082986;28;20660;-83
2023/05/19 08:54:13;;;;;;;2.85;1.70;;;;;;;;;;5095778;28;20621;-84
2023/05/19 08:56:42;;;;;;;1.52;1.30;;;;;;;;;;5095324;28;20217;-83
2023/05/19 08:59:09;;;;;;;1.40;1.30;;;;;;;;;;5083639;28;20208;-84
2023/05/19 09:01:38;;;;;;;1.40;1.10;;;;;;;;;;5086182;28;20274;-83
2023/05/19 09:04:06;;;;;;;1.40;1.30;;;;;;;;;;5085557;28;20197;-83
2023/05/19 09:06:34;;;;;;;2.00;1.80;;;;;;;;;;5085856;28;20240;-84
2023/05/19 09:09:04;;;;;;;3.80;2.05;;;;;;;;;;5084146;28;20903;-83
2023/05/19 09:11:31;;;;;;;1.20;1.10;;;;;;;;;;5085313;28;20243;-83
2023/05/19 09:13:59;;;;;;;1.42;1.30;;;;;;;;;;5084074;28;20201;-83
2023/05/19 09:16:26;;;;;;;1.15;1.05;;;;;;;;;;5084456;28;20699;-84
2023/05/19 09:18:57;;;;;;;2.00;1.73;;;;;;;;;;5083837;28;20220;-83
2023/05/19 09:21:30;;;;;;;1.73;1.60;;;;;;;;;;5084457;28;20201;-83
2023/05/19 09:24:03;;;;;;;1.85;1.75;;;;;;;;;;5097174;28;20196;-85
2023/05/19 09:26:38;;;;;;;1.67;1.58;;;;;;;;;;5103110;28;20224;-84
2023/05/19 09:29:12;;;;;;;4.45;1.95;;;;;;;;;;5103458;28;20288;-84
2023/05/19 09:31:41;;;;;;;1.60;1.50;;;;;;;;;;5103119;28;20254;-84
2023/05/19 09:34:14;;;;;;;1.13;1.10;;;;;;;;;;5102345;28;20197;-85
2023/05/19 09:36:42;;;;;;;1.85;1.63;;;;;;;;;;5099397;28;20200;-86
2023/05/19 09:39:17;;;;;;;1.40;1.30;;;;;;;;;;5101300;28;20228;-86
2023/05/19 09:41:45;;;;;;;1.50;1.40;;;;;;;;;;5099500;28;20196;-85
2023/05/19 09:44:23;;;;;;;2.30;1.80;;;;;;;;;;5100344;28;20291;-87
2023/05/19 09:46:51;;;;;;;1.08;1.00;;;;;;;;;;5101061;28;20204;-85
2023/05/19 09:49:23;;;;;;;1.30;1.20;;;;;;;;;;5100806;28;20597;-86
2023/05/19 09:51:53;;;;;;;1.90;1.20;;;;;;;;;;5102166;28;20704;-85
2023/05/19 09:54:23;;;;;;;1.55;1.45;;;;;;;;;;5101337;28;20736;-86
2023/05/19 09:56:58;;;;;;;1.48;1.35;;;;;;;;;;5104021;28;20196;-84
2023/05/19 09:59:26;;;;;;;1.63;1.48;;;;;;;;;;5099328;28;20687;-86
2023/05/19 10:01:56;;;;;;;1.75;1.40;;;;;;;;;;5097650;28;20196;-84
2023/05/19 10:04:25;;;;;;;1.30;1.10;;;;;;;;;;5097336;28;20703;-85
2023/05/19 10:06:53;;;;;;;2.13;1.55;;;;;;;;;;5096683;28;20330;-84
2023/05/19 10:09:24;;;;;;;1.27;1.17;;;;;;;;;;5097420;28;20695;-85
2023/05/19 10:11:53;;;;;;;0.98;0.90;;;;;;;;;;5096110;28;20203;-84
2023/05/19 10:14:24;;;;;;;1.30;1.20;;;;;;;;;;5097165;28;20631;-84
2023/05/19 10:16:52;;;;;;;1.85;1.35;;;;;;;;;;5096741;28;20200;-84
2023/05/19 10:19:22;;;;;;;2.97;2.30;;;;;;;;;;5096947;28;20180;-83
2023/05/19 10:22:04;;;;;;;1.30;1.20;;;;;;;;;;5099126;28;20620;-80
2023/05/19 10:24:32;;;;;;;1.75;1.63;;;;;;;;;;5096726;28;20238;-79
2023/05/19 10:27:03;;;;;;;2.10;1.13;;;;;;;;;;5099447;28;20292;-80
2023/05/19 10:29:34;;;;;;;1.35;1.10;;;;;;;;;;5096766;28;20652;-78
2023/05/19 10:32:06;;;;;;;1.42;1.33;;;;;;;;;;5096334;28;20262;-79
2023/05/19 10:37:12;;;;;;;1.67;1.25;;;;;;;;;;5087858;22;20236;-83
2023/05/19 10:39:43;;;;;;;1.55;1.42;;;;;;;;;;5070079;28;20691;-80
2023/05/19 10:42:17;;;;;;;2.10;1.45;;;;;;;;;;5070702;28;20201;-81
2023/05/19 10:44:53;;;;;;;1.58;1.33;;;;;;;;;;5072771;28;20193;-82
2023/05/19 10:47:24;;;;;;;1.38;1.27;;;;;;;;;;5069859;28;20201;-82
2023/05/19 10:49:53;;;;;;;1.60;1.42;;;;;;;;;;5070592;28;20197;-81
2023/05/19 10:52:24;;;;;;;2.70;1.60;;;;;;;;;;5070343;28;20249;-81
2023/05/19 10:54:53;;;;;;;2.10;1.67;;;;;;;;;;5050597;28;20198;-82
2023/05/19 10:57:25;;;;;;;1.70;1.08;;;;;;;;;;5049710;28;20205;-80
2023/05/19 10:59:53;;;;;;;3.70;2.55;;;;;;;;;;5049286;28;20240;-81
2023/05/19 11:02:41;;;;;;;2.80;1.65;;;;;;;;;;5054420;28;20285;-81
2023/05/19 11:05:10;;;;;;;2.50;1.50;;;;;;;;;;5064181;28;20252;-79
2023/05/19 11:07:43;;;;;;;2.42;1.23;;;;;;;;;;5075040;28;20256;-84
2023/05/19 11:10:12;;;;;;;1.92;1.23;;;;;;;;;;5084209;28;20203;-82
2023/05/19 11:12:45;;;;;;;1.23;1.13;;;;;;;;;;5083173;28;20760;-81
2023/05/19 11:15:13;;;;;;;1.50;1.40;;;;;;;;;;5084946;28;20368;-81
2023/05/19 11:17:42;;;;;;;1.15;1.05;;;;;;;;;;5076409;28;20667;-83
2023/05/19 11:20:21;;;;;;;1.65;1.10;;;;;;;;;;5073711;28;20277;-82
2023/05/19 11:23:06;;;;;;;2.42;1.27;;;;;;;;;;5074171;28;20672;-82
2023/05/19 11:25:45;;;;;;;1.92;1.25;;;;;;;;;;5073553;28;20228;-83
2023/05/19 11:28:15;;;;;;;1.42;1.20;;;;;;;;;;5071480;28;20242;-82
2023/05/19 11:30:44;;;;;;;1.20;1.10;;;;;;;;;;5072945;28;20236;-83
2023/05/19 11:33:12;;;;;;;1.80;1.48;;;;;;;;;;5060964;28;20234;-81
2023/05/19 11:35:41;;;;;;;2.05;1.85;;;;;;;;;;5058123;28;20371;-82
2023/05/19 11:38:09;;;;;;;1.58;1.13;;;;;;;;;;5057877;28;20565;-82
2023/05/19 11:40:37;;;;;;;1.88;1.27;;;;;;;;;;5058331;28;20198;-83
2023/05/19 11:43:05;;;;;;;1.38;1.27;;;;;;;;;;5057861;28;20236;-82
2023/05/19 11:45:32;;;;;;;1.50;1.40;;;;;;;;;;5057313;28;20305;-83
2023/05/19 11:48:01;;;;;;;1.38;1.17;;;;;;;;;;5056888;28;20300;-82
2023/05/19 11:50:30;;;;;;;1.20;1.10;;;;;;;;;;5057005;28;20717;-83
2023/05/19 11:52:59;;;;;;;1.50;1.40;;;;;;;;;;5057816;28;20297;-82
2023/05/19 11:55:28;;;;;;;2.15;1.00;;;;;;;;;;5056758;28;20728;-81
2023/05/19 11:57:59;;;;;;;1.42;1.13;;;;;;;;;;5056686;28;20207;-82
2023/05/19 12:00:26;;;;;;;1.10;1.10;;;;;;;;;;5056738;28;20551;-81
2023/05/19 12:02:54;;;;;;;1.40;1.30;;;;;;;;;;5056337;28;20232;-82
2023/05/19 12:05:23;;;;;;;1.40;1.30;;;;;;;;;;5056845;28;20756;-83
2023/05/19 12:07:51;;;;;;;1.20;1.20;;;;;;;;;;5056641;28;20212;-80
2023/05/19 12:10:19;;;;;;;2.25;1.77;;;;;;;;;;5057047;28;20229;-82
2023/05/19 12:12:50;;;;;;;1.50;1.40;;;;;;;;;;5055696;28;20198;-83
2023/05/19 12:15:20;;;;;;;1.10;1.10;;;;;;;;;;5056213;28;20608;-82
2023/05/19 12:17:50;;;;;;;1.20;1.10;;;;;;;;;;5056008;28;20572;-81
2023/05/19 12:20:18;;;;;;;1.20;1.00;;;;;;;;;;5055364;28;20624;-82
2023/05/19 12:22:46;;;;;;;1.45;1.35;;;;;;;;;;5055770;28;20220;-81
2023/05/19 12:25:14;;;;;;;1.83;1.58;;;;;;;;;;5055318;28;20788;-83
2023/05/19 12:27:44;;;;;;;2.03;1.25;;;;;;;;;;5054940;28;20205;-82
2023/05/19 12:30:14;;;;;;;3.05;1.58;;;;;;;;;;5056500;28;20209;-82
2023/05/19 12:32:41;;;;;;;1.02;0.98;;;;;;;;;;5055619;28;20734;-81
2023/05/19 12:35:10;;;;;;;1.83;1.52;;;;;;;;;;5055349;28;20320;-81
2023/05/19 12:37:40;;;;;;;1.33;1.25;;;;;;;;;;5055520;28;20201;-82
2023/05/19 12:40:10;;;;;;;2.00;1.50;;;;;;;;;;5056112;28;20202;-81
2023/05/19 12:42:37;;;;;;;2.25;1.10;;;;;;;;;;5055766;28;20609;-81
2023/05/19 12:45:06;;;;;;;3.08;1.73;;;;;;;;;;5055049;28;20665;-81
2023/05/19 12:47:36;;;;;;;2.15;1.42;;;;;;;;;;5057524;28;20202;-82
2023/05/19 12:50:06;;;;;;;1.52;1.42;;;;;;;;;;5056303;28;20650;-82
2023/05/19 12:52:40;;;;;;;1.35;1.25;;;;;;;;;;5056714;28;20288;-83
2023/05/19 12:55:09;;;;;;;1.10;1.10;;;;;;;;;;5056190;28;20221;-81
2023/05/19 12:57:38;;;;;;;1.08;0.90;;;;;;;;;;5055911;28;20209;-82
2023/05/19 13:00:09;;;;;;;4.40;1.30;;;;;;;;;;5056900;28;20288;-81
2023/05/19 13:02:57;;;;;;;1.48;1.00;;;;;;;;;;5055747;28;20222;-81
2023/05/19 13:05:26;;;;;;;1.27;1.17;;;;;;;;;;5056302;28;20727;-82
2023/05/19 13:07:57;;;;;;;1.42;1.33;;;;;;;;;;5055858;28;20198;-82
2023/05/19 13:10:26;;;;;;;0.98;0.98;;;;;;;;;;5055840;28;20669;-82
2023/05/19 13:12:57;;;;;;;1.30;1.20;;;;;;;;;;5055499;28;20229;-81
2023/05/19 13:15:35;;;;;;;1.10;1.10;;;;;;;;;;5056515;28;20257;-82
2023/05/19 13:18:05;;;;;;;0.80;0.80;;;;;;;;;;5055998;28;20254;-83
2023/05/19 13:20:33;;;;;;;1.27;1.10;;;;;;;;;;5056859;28;20202;-83
2023/05/19 13:23:01;;;;;;;1.88;1.27;;;;;;;;;;5055863;28;20697;-83
2023/05/19 13:25:29;;;;;;;1.20;1.10;;;;;;;;;;5055840;28;20585;-82
2023/05/19 13:27:59;;;;;;;1.35;1.25;;;;;;;;;;5058734;28;20205;-83
2023/05/19 13:30:28;;;;;;;1.73;1.17;;;;;;;;;;5056914;28;20775;-83
2023/05/19 13:32:55;;;;;;;1.08;1.08;;;;;;;;;;5057306;28;20228;-82
2023/05/19 13:35:24;;;;;;;1.50;1.40;;;;;;;;;;5054878;28;20611;-82
2023/05/19 13:37:52;;;;;;;1.10;1.00;;;;;;;;;;5054709;28;20632;-82
2023/05/19 13:40:19;;;;;;;1.42;1.20;;;;;;;;;;5054922;28;20680;-82
2023/05/19 13:42:47;;;;;;;1.50;1.40;;;;;;;;;;5056403;28;20289;-81
2023/05/19 13:45:14;;;;;;;1.23;1.13;;;;;;;;;;5059705;28;20559;-82
2023/05/19 13:47:42;;;;;;;1.45;1.15;;;;;;;;;;5056811;28;20281;-82
2023/05/19 13:50:11;;;;;;;1.23;1.13;;;;;;;;;;5056929;28;20292;-81
2023/05/19 13:52:39;;;;;;;1.23;1.10;;;;;;;;;;5055761;28;20288;-83
2023/05/19 13:55:08;;;;;;;1.40;1.30;;;;;;;;;;5055753;28;20260;-81
2023/05/19 13:57:35;;;;;;;0.70;0.70;;;;;;;;;;5054435;28;20688;-81
2023/05/19 14:00:04;;;;;;;1.42;1.10;;;;;;;;;;5054473;28;20209;-81
2023/05/19 14:02:32;;;;;;;0.90;0.90;;;;;;;;;;5054970;28;20222;-82
2023/05/19 14:05:00;;;;;;;1.08;0.98;;;;;;;;;;5054018;28;20709;-82
2023/05/19 14:07:28;;;;;;;1.15;0.98;;;;;;;;;;5053860;28;20205;-82
2023/05/19 14:09:56;;;;;;;2.10;1.13;;;;;;;;;;5054472;28;20209;-82
2023/05/19 14:12:25;;;;;;;1.45;1.35;;;;;;;;;;5056534;28;20284;-84
2023/05/19 14:14:53;;;;;;;1.10;1.10;;;;;;;;;;5055510;28;20292;-82
2023/05/19 14:17:20;;;;;;;1.30;1.20;;;;;;;;;;5052562;28;20293;-82
2023/05/19 14:19:48;;;;;;;2.28;1.15;;;;;;;;;;5052724;28;20688;-82
2023/05/19 14:22:16;;;;;;;2.30;1.20;;;;;;;;;;5052625;28;20207;-82
2023/05/19 14:24:44;;;;;;;1.52;1.42;;;;;;;;;;5052867;28;20297;-83
2023/05/19 14:27:13;;;;;;;1.50;1.30;;;;;;;;;;5052453;28;20227;-83
2023/05/19 14:29:41;;;;;;;1.60;1.50;;;;;;;;;;5052686;28;20202;-82
2023/05/19 14:32:09;;;;;;;1.00;0.90;;;;;;;;;;5051997;28;20571;-82
2023/05/19 14:34:36;;;;;;;1.55;1.10;;;;;;;;;;5052957;28;20220;-83
2023/05/19 14:37:04;;;;;;;1.30;1.20;;;;;;;;;;5053877;28;20316;-82
2023/05/19 14:39:31;;;;;;;1.33;1.23;;;;;;;;;;5052396;28;20209;-83
2023/05/19 14:41:59;;;;;;;1.17;1.08;;;;;;;;;;5052233;28;20223;-82
2023/05/19 14:44:32;;;;;;;1.30;1.20;;;;;;;;;;5051713;28;20599;-83
2023/05/19 14:47:00;;;;;;;1.58;1.23;;;;;;;;;;5052280;28;20218;-82
2023/05/19 14:49:28;;;;;;;0.93;0.93;;;;;;;;;;5052224;28;20209;-83
2023/05/19 14:51:55;;;;;;;1.27;1.17;;;;;;;;;;5052514;28;20300;-82
2023/05/19 14:54:23;;;;;;;1.75;1.05;;;;;;;;;;5051338;28;20749;-83
2023/05/19 14:56:50;;;;;;;1.38;1.35;;;;;;;;;;5051693;28;20224;-82
2023/05/19 14:59:17;;;;;;;0.90;0.90;;;;;;;;;;5051218;28;20587;-82